createdAt,value
2022-09-06T00:00:24.344Z,3.45
2022-09-06T00:02:51.340Z,6.55
2022-09-06T00:05:18.814Z,5.53
2022-09-06T00:07:45.684Z,7.63
2022-09-06T00:10:13.564Z,3.72
2022-09-06T00:12:41.274Z,5.45
2022-09-06T00:15:08.807Z,4.88
2022-09-06T00:17:35.886Z,4.03
2022-09-06T00:20:04.969Z,5.93
2022-09-06T00:22:32.011Z,3.47
2022-09-06T00:24:59.139Z,6.57
2022-09-06T00:27:26.342Z,6.10
2022-09-06T00:29:53.323Z,6.25
2022-09-06T00:32:20.376Z,4.20
2022-09-06T00:34:47.639Z,5.05
2022-09-06T00:37:14.773Z,6.07
2022-09-06T00:39:41.986Z,6.82
2022-09-06T00:42:11.654Z,7.10
2022-09-06T00:44:39.454Z,9.93
2022-09-06T00:47:08.792Z,4.45
2022-09-06T00:49:42.468Z,3.17
2022-09-06T00:52:12.146Z,3.97
2022-09-06T00:54:39.843Z,6.30
2022-09-06T00:57:07.362Z,5.10
2022-09-06T00:59:37.903Z,3.95
2022-09-06T01:02:05.598Z,6.97
2022-09-06T01:04:33.200Z,4.43
2022-09-06T01:07:51.914Z,7.05
2022-09-06T01:11:22.539Z,6.30
2022-09-06T01:14:00.950Z,10.52
2022-09-06T01:16:48.476Z,5.38
2022-09-06T01:20:09.636Z,6.30
2022-09-06T01:23:16.977Z,4.68
2022-09-06T01:26:09.587Z,7.55
2022-09-06T01:28:46.028Z,5.32
2022-09-06T01:31:32.268Z,5.38
2022-09-06T01:34:16.578Z,5.30
2022-09-06T01:37:08.889Z,7.93
2022-09-06T01:39:40.002Z,8.15
2022-09-06T01:42:14.023Z,8.40
2022-09-06T01:44:46.107Z,6.47
2022-09-06T01:47:24.377Z,9.18
2022-09-06T01:50:18.820Z,8.07
2022-09-06T01:53:45.355Z,9.82
2022-09-06T01:57:03.615Z,8.68
2022-09-06T02:00:10.110Z,5.45
2022-09-06T02:02:47.032Z,7.30
2022-09-06T02:05:25.825Z,6.43
2022-09-06T02:07:59.008Z,6.78
2022-09-06T02:10:46.178Z,5.00
2022-09-06T02:13:15.031Z,8.93
2022-09-06T02:15:52.711Z,5.30
2022-09-06T02:18:28.221Z,7.15
2022-09-06T02:20:58.172Z,6.88
2022-09-06T02:23:30.302Z,6.05
2022-09-06T02:26:09.730Z,6.18
2022-09-06T02:28:36.761Z,6.55
2022-09-06T02:31:13.125Z,5.18
2022-09-06T02:33:41.356Z,10.15
2022-09-06T02:36:09.728Z,5.70
2022-09-06T02:38:39.911Z,6.28
2022-09-06T02:41:07.516Z,4.63
2022-09-06T02:43:34.674Z,6.25
2022-09-06T02:46:02.068Z,7.10
2022-09-06T02:48:29.067Z,6.28
2022-09-06T02:50:56.041Z,6.57
2022-09-06T02:53:22.969Z,6.32
2022-09-06T02:55:49.998Z,5.60
2022-09-06T02:58:16.915Z,5.70
2022-09-06T03:00:44.111Z,7.60
2022-09-06T03:03:11.748Z,8.48
2022-09-06T03:05:38.835Z,7.45
2022-09-06T03:08:06.179Z,4.70
2022-09-06T03:10:33.371Z,8.98
2022-09-06T03:13:00.323Z,4.82
2022-09-06T03:15:27.269Z,6.63
2022-09-06T03:17:59.457Z,6.57
2022-09-06T03:20:26.756Z,7.47
2022-09-06T03:22:53.693Z,4.28
2022-09-06T03:25:21.675Z,5.88
2022-09-06T03:27:48.634Z,4.68
2022-09-06T03:30:15.611Z,8.73
2022-09-06T03:32:42.574Z,5.47
2022-09-06T03:35:10.108Z,4.43
2022-09-06T03:37:37.388Z,6.65
2022-09-06T03:40:06.379Z,5.35
2022-09-06T03:42:33.528Z,6.30
2022-09-06T03:45:00.404Z,6.95
2022-09-06T03:47:27.314Z,6.10
2022-09-06T03:49:54.212Z,4.50
2022-09-06T03:52:21.299Z,8.93
2022-09-06T03:54:48.215Z,6.68
2022-09-06T03:57:15.152Z,7.88
2022-09-06T03:59:42.063Z,5.32
2022-09-06T04:02:09.007Z,7.97
2022-09-06T04:04:35.986Z,6.45
2022-09-06T04:07:02.874Z,5.32
2022-09-06T04:09:29.888Z,5.43
2022-09-06T04:11:56.797Z,5.10
2022-09-06T04:14:23.755Z,6.55
2022-09-06T04:16:50.742Z,6.18
2022-09-06T04:19:17.776Z,7.38
2022-09-06T04:21:44.773Z,6.22
2022-09-06T04:24:11.660Z,6.15
2022-09-06T04:26:38.573Z,6.53
2022-09-06T04:29:05.538Z,6.70
2022-09-06T04:31:32.578Z,5.97
2022-09-06T04:33:59.505Z,5.35
2022-09-06T04:36:26.457Z,7.22
2022-09-06T04:38:54.727Z,9.23
2022-09-06T04:41:21.968Z,8.15
2022-09-06T04:43:49.381Z,4.90
2022-09-06T04:46:29.814Z,7.55
2022-09-06T04:48:57.777Z,4.95
2022-09-06T04:51:25.739Z,4.85
2022-09-06T04:53:52.904Z,5.70
2022-09-06T04:56:22.571Z,6.93
2022-09-06T04:58:51.312Z,5.53
2022-09-06T05:01:18.690Z,7.82
2022-09-06T05:03:45.885Z,7.03
2022-09-06T05:06:20.929Z,8.65
2022-09-06T05:08:48.306Z,4.85
2022-09-06T05:11:16.279Z,6.00
2022-09-06T05:13:43.215Z,5.13
2022-09-06T05:16:10.751Z,6.03
2022-09-06T05:18:37.975Z,4.00
2022-09-06T05:21:05.075Z,5.00
2022-09-06T05:23:32.025Z,5.38
2022-09-06T05:25:58.994Z,5.68
2022-09-06T05:28:25.920Z,6.32
2022-09-06T05:30:52.841Z,5.53
2022-09-06T05:33:22.541Z,5.95
2022-09-06T05:35:50.092Z,7.00
2022-09-06T05:38:17.148Z,6.50
2022-09-06T05:40:44.235Z,7.65
2022-09-06T05:43:11.135Z,7.10
2022-09-06T05:45:38.181Z,8.20
2022-09-06T05:48:05.232Z,5.47
2022-09-06T05:50:32.286Z,10.30
2022-09-06T05:52:59.243Z,6.03
2022-09-06T05:55:26.512Z,6.82
2022-09-06T05:57:53.547Z,7.45
2022-09-06T06:00:20.941Z,7.40
2022-09-06T06:02:49.605Z,8.05
2022-09-06T06:05:17.301Z,7.30
2022-09-06T06:07:44.251Z,7.80
2022-09-06T06:10:11.379Z,7.55
2022-09-06T06:12:38.303Z,6.72
2022-09-06T06:15:06.185Z,8.85
2022-09-06T06:17:33.222Z,9.07
2022-09-06T06:20:00.226Z,8.57
2022-09-06T06:22:27.318Z,9.32
2022-09-06T06:24:54.304Z,7.97
2022-09-06T06:27:21.320Z,7.07
2022-09-06T06:29:48.866Z,8.50
2022-09-06T06:32:15.822Z,8.75
2022-09-06T06:34:42.783Z,10.85
2022-09-06T06:37:09.710Z,10.57
2022-09-06T06:39:37.171Z,8.13
2022-09-06T06:42:04.304Z,9.45
2022-09-06T06:44:41.463Z,9.43
2022-09-06T06:47:08.336Z,8.15
2022-09-06T06:49:35.452Z,7.63
2022-09-06T06:52:02.570Z,7.75
2022-09-06T06:54:29.882Z,6.93
2022-09-06T06:56:56.868Z,7.03
2022-09-06T06:59:24.078Z,7.10
2022-09-06T07:01:51.535Z,9.60
2022-09-06T07:04:18.734Z,6.75
2022-09-06T07:12:29.453Z,7.72
2022-09-06T07:14:56.404Z,11.48
2022-09-06T07:17:23.532Z,7.53
2022-09-06T07:22:38.752Z,8.20
2022-09-06T07:25:07.449Z,10.85
2022-09-06T07:27:50.440Z,10.45
2022-09-06T07:30:19.827Z,10.48
2022-09-06T07:32:47.161Z,8.98
2022-09-06T07:35:14.259Z,8.98
2022-09-06T07:37:41.205Z,9.63
2022-09-06T07:40:09.277Z,11.95
2022-09-06T07:42:37.004Z,9.68
2022-09-06T07:45:05.416Z,8.00
2022-09-06T07:53:09.718Z,7.45
2022-09-06T07:55:40.226Z,8.30
2022-09-06T07:58:07.232Z,10.15
2022-09-06T08:00:34.339Z,8.18
2022-09-06T08:03:01.322Z,8.52
2022-09-06T08:11:02.195Z,8.52
2022-09-06T08:13:29.451Z,7.85
2022-09-06T08:16:06.323Z,8.07
2022-09-06T08:18:35.323Z,8.00
2022-09-06T08:21:14.100Z,6.35
2022-09-06T08:23:45.818Z,8.75
2022-09-06T08:26:12.845Z,8.20
2022-09-06T08:28:39.752Z,8.85
2022-09-06T08:31:16.718Z,11.13
2022-09-06T08:33:44.669Z,8.40
2022-09-06T08:36:12.096Z,6.75
2022-09-06T08:38:38.998Z,5.97
2022-09-06T08:41:31.415Z,4.47
2022-09-06T08:47:15.573Z,7.43
2022-09-06T08:49:46.257Z,8.02
2022-09-06T08:53:06.084Z,6.45
2022-09-06T08:55:55.254Z,4.95
2022-09-06T08:59:07.381Z,6.25
2022-09-06T09:01:48.016Z,5.75
2022-09-06T09:04:19.540Z,5.40
2022-09-06T09:06:55.054Z,5.43
2022-09-06T09:09:22.191Z,6.15
2022-09-06T09:11:51.336Z,7.28
2022-09-06T09:14:31.086Z,6.10
2022-09-06T09:17:06.189Z,6.07
2022-09-06T09:22:04.108Z,3.47
2022-09-06T09:24:32.292Z,4.43
2022-09-06T09:27:13.381Z,4.82
2022-09-06T09:32:45.536Z,6.85
2022-09-06T09:35:23.465Z,5.35
2022-09-06T09:38:11.816Z,5.05
2022-09-06T09:41:00.278Z,4.25
2022-09-06T09:43:42.561Z,2.53
2022-09-06T09:46:28.759Z,6.20
2022-09-06T09:49:13.102Z,3.13
2022-09-06T09:51:47.498Z,5.90
2022-09-06T09:54:30.333Z,5.13
2022-09-06T09:56:58.072Z,3.50
2022-09-06T09:59:37.002Z,5.55
2022-09-06T10:02:39.164Z,3.38
2022-09-06T10:05:16.115Z,6.15
2022-09-06T10:07:49.160Z,4.32
2022-09-06T10:10:28.491Z,7.50
2022-09-06T10:13:24.274Z,2.80
2022-09-06T10:15:53.814Z,3.60
2022-09-06T10:18:20.761Z,3.72
2022-09-06T10:20:55.308Z,4.80
2022-09-06T10:26:55.823Z,6.43
2022-09-06T10:29:55.930Z,4.63
2022-09-06T10:32:42.567Z,3.63
2022-09-06T10:35:27.029Z,3.83
2022-09-06T10:38:32.346Z,5.20
2022-09-06T10:41:39.566Z,4.30
2022-09-06T10:44:35.488Z,7.68
2022-09-06T10:47:12.630Z,5.50
2022-09-06T10:49:45.420Z,3.42
2022-09-06T10:52:25.715Z,3.03
2022-09-06T10:54:58.042Z,2.25
2022-09-06T11:00:27.145Z,6.32
2022-09-06T11:06:22.513Z,3.38
2022-09-06T11:09:16.791Z,3.08
2022-09-06T11:12:10.512Z,5.57
2022-09-06T11:14:39.326Z,3.05
2022-09-06T11:17:43.904Z,4.10
2022-09-06T11:20:22.927Z,3.33
2022-09-06T11:23:23.385Z,3.33
2022-09-06T11:26:13.866Z,4.45
2022-09-06T11:28:48.200Z,2.92
2022-09-06T11:34:26.138Z,4.45
2022-09-06T11:36:59.047Z,3.10
2022-09-06T11:43:02.500Z,4.80
2022-09-06T11:45:50.653Z,2.72
2022-09-06T11:48:23.766Z,5.85
2022-09-06T11:50:59.889Z,4.22
2022-09-06T11:53:32.943Z,1.75
2022-09-06T11:56:03.189Z,2.55
2022-09-06T11:58:32.654Z,5.90
2022-09-06T12:01:18.898Z,3.60
2022-09-06T12:04:05.155Z,2.53
2022-09-06T12:07:02.780Z,6.80
2022-09-06T12:09:44.039Z,4.18
2022-09-06T12:12:16.188Z,6.10
2022-09-06T12:14:47.096Z,2.55
2022-09-06T12:17:14.113Z,6.85
2022-09-06T12:19:59.442Z,6.18
2022-09-06T12:25:18.555Z,4.03
2022-09-06T12:28:00.754Z,2.83
2022-09-06T12:30:48.545Z,3.30
2022-09-06T12:33:30.799Z,4.47
2022-09-06T12:36:18.162Z,3.15
2022-09-06T12:39:13.206Z,5.00
2022-09-06T12:41:51.386Z,3.40
2022-09-06T12:44:30.820Z,4.45
2022-09-06T12:47:31.659Z,3.38
2022-09-06T12:50:19.962Z,5.97
2022-09-06T12:53:00.213Z,4.25
2022-09-06T12:55:30.905Z,2.42
2022-09-06T12:58:00.440Z,2.90
2022-09-06T13:00:35.179Z,4.00
2022-09-06T13:03:35.243Z,2.78
2022-09-06T13:06:05.697Z,4.38
2022-09-06T13:08:48.190Z,4.20
2022-09-06T13:11:39.873Z,5.43
2022-09-06T13:14:23.923Z,1.83
2022-09-06T13:16:53.325Z,2.83
2022-09-06T13:19:32.610Z,2.67
2022-09-06T13:22:00.860Z,4.97
2022-09-06T13:24:47.750Z,4.82
2022-09-06T13:27:36.235Z,3.45
2022-09-06T13:30:10.433Z,3.97
2022-09-06T13:32:47.149Z,3.72
2022-09-06T13:35:24.873Z,2.05
2022-09-06T13:37:51.993Z,2.67
2022-09-06T13:41:09.757Z,3.28
2022-09-06T13:43:33.643Z,3.22
2022-09-06T13:46:06.769Z,2.47
2022-09-06T13:48:34.631Z,3.05
2022-09-06T13:51:07.826Z,3.40
2022-09-06T13:53:35.546Z,3.08
2022-09-06T13:56:03.211Z,4.38
2022-09-06T13:58:30.377Z,3.33
2022-09-06T14:00:58.561Z,3.45
2022-09-06T14:03:31.122Z,1.45
2022-09-06T14:06:00.300Z,2.05
2022-09-06T14:08:43.834Z,1.80
2022-09-06T14:11:17.316Z,4.82
2022-09-06T14:13:44.686Z,2.78
2022-09-06T14:16:12.279Z,4.78
2022-09-06T14:18:40.398Z,2.90
2022-09-06T14:21:07.954Z,2.83
2022-09-06T14:23:34.880Z,2.90
2022-09-06T14:26:03.910Z,6.63
2022-09-06T14:28:33.176Z,5.43
2022-09-06T14:31:15.797Z,4.20
2022-09-06T14:33:43.313Z,1.52
2022-09-06T14:36:14.261Z,3.00
2022-09-06T14:38:44.385Z,1.92
2022-09-06T14:41:14.452Z,1.67
2022-09-06T14:43:49.083Z,1.75
2022-09-06T14:46:18.240Z,2.05
2022-09-06T14:48:45.859Z,1.33
2022-09-06T14:51:24.255Z,4.63
2022-09-06T14:53:55.472Z,1.95
2022-09-06T14:56:23.425Z,2.92
2022-09-06T14:58:50.597Z,3.78
2022-09-06T15:01:22.198Z,2.15
2022-09-06T15:03:59.055Z,11.23
2022-09-06T15:06:27.433Z,0.95
2022-09-06T15:08:59.172Z,1.52
2022-09-06T15:11:34.586Z,4.60
2022-09-06T15:14:08.659Z,1.48
2022-09-06T15:16:36.323Z,7.78
2022-09-06T15:19:03.833Z,3.67
2022-09-06T15:21:32.167Z,1.83
2022-09-06T15:24:00.365Z,2.35
2022-09-06T15:26:27.565Z,6.05
2022-09-06T15:28:54.509Z,8.32
2022-09-06T15:31:21.901Z,2.63
2022-09-06T15:33:51.023Z,2.90
2022-09-06T15:36:18.603Z,0.93
2022-09-06T15:38:49.003Z,4.07
2022-09-06T15:41:19.704Z,1.50
2022-09-06T15:43:49.573Z,5.15
2022-09-06T15:46:23.181Z,1.27
2022-09-06T15:48:53.572Z,1.77
2022-09-06T15:51:21.365Z,1.38
2022-09-06T15:53:48.824Z,3.42
2022-09-06T15:56:17.439Z,2.58
2022-09-06T15:58:48.053Z,3.50
2022-09-06T16:01:21.473Z,2.90
2022-09-06T16:03:54.600Z,1.20
2022-09-06T16:06:27.997Z,3.67
2022-09-06T16:09:08.647Z,2.47
2022-09-06T16:11:36.828Z,2.13
2022-09-06T16:14:06.613Z,1.13
2022-09-06T16:16:35.157Z,8.02
2022-09-06T16:19:03.197Z,4.60
2022-09-06T16:21:33.034Z,1.88
2022-09-06T16:24:03.996Z,2.50
2022-09-06T16:26:41.133Z,1.98
2022-09-06T16:29:10.891Z,1.13
2022-09-06T16:31:40.463Z,3.42
2022-09-06T16:34:09.575Z,3.13
2022-09-06T16:36:36.733Z,1.20
2022-09-06T16:39:05.436Z,3.42
2022-09-06T16:41:39.482Z,2.50
2022-09-06T16:44:08.430Z,2.17
2022-09-06T16:46:35.603Z,3.50
2022-09-06T16:49:03.196Z,1.02
2022-09-06T16:51:31.431Z,2.83
2022-09-06T16:53:59.866Z,3.00
2022-09-06T16:56:33.682Z,5.63
2022-09-06T16:59:06.493Z,2.60
2022-09-06T17:01:35.858Z,7.53
2022-09-06T17:04:03.915Z,1.63
2022-09-06T17:06:33.110Z,9.40
2022-09-06T17:09:00.402Z,4.55
2022-09-06T17:11:29.031Z,3.97
2022-09-06T17:13:57.489Z,11.80
2022-09-06T17:16:44.265Z,2.85
2022-09-06T17:19:12.539Z,4.78
2022-09-06T17:21:40.180Z,3.10
2022-09-06T17:24:08.644Z,0.80
2022-09-06T17:26:39.454Z,1.92
2022-09-06T17:29:07.686Z,2.30
2022-09-06T17:31:37.215Z,9.43
2022-09-06T17:34:05.037Z,6.60
2022-09-06T17:36:33.244Z,9.20
2022-09-06T17:39:10.695Z,9.60
2022-09-06T17:41:40.712Z,4.47
2022-09-06T17:44:11.181Z,2.63
2022-09-06T17:46:51.935Z,1.80
2022-09-06T17:49:24.751Z,2.35
2022-09-06T17:51:52.231Z,2.38
2022-09-06T17:54:19.372Z,5.53
2022-09-06T17:56:46.507Z,2.33
2022-09-06T17:59:15.471Z,1.85
2022-09-06T18:01:45.496Z,2.42
2022-09-06T18:04:13.694Z,1.75
2022-09-06T18:06:43.486Z,2.67
2022-09-06T18:09:17.518Z,4.65
2022-09-06T18:11:47.065Z,2.40
2022-09-06T18:14:17.813Z,1.40
2022-09-06T18:16:47.059Z,3.53
2022-09-06T18:19:15.587Z,3.25
2022-09-06T18:21:42.803Z,3.63
2022-09-06T18:24:10.701Z,2.13
2022-09-06T18:26:38.122Z,5.35
2022-09-06T18:29:12.070Z,1.88
2022-09-06T18:31:40.215Z,2.50
2022-09-06T18:34:08.846Z,1.85
2022-09-06T18:36:37.085Z,3.28
2022-09-06T18:39:05.815Z,4.53
2022-09-06T18:41:53.560Z,6.07
2022-09-06T18:44:20.837Z,1.83
2022-09-06T18:46:48.791Z,4.13
2022-09-06T18:49:16.508Z,3.45
2022-09-06T18:51:44.967Z,3.88
2022-09-06T18:54:12.067Z,4.00
2022-09-06T18:56:39.172Z,2.38
2022-09-06T18:59:07.096Z,2.80
2022-09-06T19:01:35.123Z,2.75
2022-09-06T19:04:04.608Z,8.77
2022-09-06T19:06:33.168Z,3.28
2022-09-06T19:09:03.357Z,4.30
2022-09-06T19:11:30.388Z,9.07
2022-09-06T19:13:58.568Z,4.50
2022-09-06T19:16:28.207Z,5.82
2022-09-06T19:18:56.788Z,2.35
2022-09-06T19:21:25.635Z,2.80
2022-09-06T19:24:22.448Z,5.38
2022-09-06T19:26:50.016Z,3.22
2022-09-06T19:29:18.660Z,3.05
2022-09-06T19:31:47.271Z,3.55
2022-09-06T19:34:15.871Z,2.72
2022-09-06T19:36:44.770Z,2.45
2022-09-06T19:39:15.274Z,5.45
2022-09-06T19:41:44.947Z,8.05
2022-09-06T19:44:12.856Z,4.90
2022-09-06T19:46:45.715Z,4.70
2022-09-06T19:49:19.121Z,3.85
2022-09-06T19:51:48.665Z,5.70
2022-09-06T19:54:16.300Z,3.95
2022-09-06T19:56:44.355Z,4.25
2022-09-06T19:59:13.095Z,5.70
2022-09-06T20:01:42.222Z,3.97
2022-09-06T20:04:11.792Z,4.95
2022-09-06T20:06:39.530Z,6.47
2022-09-06T20:09:10.108Z,6.22
2022-09-06T20:11:40.433Z,8.77
2022-09-06T20:14:08.504Z,11.18
2022-09-06T20:16:41.151Z,8.68
2022-09-06T20:19:10.429Z,10.50
2022-09-06T20:21:37.325Z,8.52
2022-09-06T20:24:05.335Z,9.43
2022-09-06T20:26:32.226Z,13.52
2022-09-06T20:29:01.792Z,14.00
2022-09-06T20:31:31.239Z,12.00
2022-09-06T20:34:04.405Z,8.98
2022-09-06T20:36:31.784Z,17.33
2022-09-06T20:38:58.790Z,11.60
2022-09-06T20:41:28.739Z,12.90
2022-09-06T20:43:58.260Z,12.35
2022-09-06T20:46:31.182Z,7.88
2022-09-06T20:49:01.867Z,5.95
2022-09-06T20:51:28.763Z,6.63
2022-09-06T20:54:00.510Z,4.20
2022-09-06T20:56:37.393Z,10.27
2022-09-06T20:59:11.031Z,9.30
2022-09-06T21:01:43.042Z,6.63
2022-09-06T21:04:11.776Z,9.63
2022-09-06T21:06:39.661Z,8.18
2022-09-06T21:09:11.064Z,10.10
2022-09-06T21:11:38.506Z,11.02
2022-09-06T21:14:07.556Z,10.13
2022-09-06T21:16:34.549Z,16.73
2022-09-06T21:19:04.242Z,16.52
2022-09-06T21:21:34.369Z,13.07
2022-09-06T21:24:03.140Z,13.52
2022-09-06T21:26:30.451Z,14.27
2022-09-06T21:28:57.662Z,15.90
2022-09-06T21:31:31.623Z,19.90
2022-09-06T21:34:04.941Z,13.77
2022-09-06T21:36:35.762Z,16.88
2022-09-06T21:39:06.681Z,17.67
2022-09-06T21:41:36.608Z,18.77
2022-09-06T21:44:05.937Z,14.50
2022-09-06T21:46:37.299Z,17.30
2022-09-06T21:49:11.133Z,13.68
2022-09-06T21:51:38.809Z,15.18
2022-09-06T21:54:06.223Z,16.08
2022-09-06T21:56:35.956Z,14.73
2022-09-06T21:59:03.942Z,14.75
2022-09-06T22:01:34.144Z,18.52
2022-09-06T22:04:02.327Z,11.85
2022-09-06T22:06:31.677Z,12.50
2022-09-06T22:09:01.669Z,12.93
2022-09-06T22:11:34.300Z,12.73
2022-09-06T22:14:05.351Z,11.35
2022-09-06T22:16:35.414Z,18.33
2022-09-06T22:19:05.066Z,20.83
2022-09-06T22:21:33.332Z,13.27
2022-09-06T22:24:05.030Z,9.05
2022-09-06T22:26:34.931Z,12.60
2022-09-06T22:29:05.320Z,10.27
2022-09-06T22:31:34.013Z,8.70
2022-09-06T22:34:01.454Z,12.93
2022-09-06T22:36:29.053Z,10.45
2022-09-06T22:38:59.119Z,10.38
2022-09-06T22:41:31.581Z,12.80
2022-09-06T22:44:02.793Z,10.10
2022-09-06T22:46:30.460Z,11.68
2022-09-06T22:48:57.854Z,10.88
2022-09-06T22:51:24.878Z,10.45
2022-09-06T22:53:51.829Z,8.45
2022-09-06T22:56:18.775Z,7.45
2022-09-06T22:58:45.958Z,18.67
2022-09-06T23:01:15.767Z,11.27
2022-09-06T23:03:43.790Z,12.48
2022-09-06T23:06:10.999Z,8.90
2022-09-06T23:08:40.133Z,9.68
2022-09-06T23:11:18.797Z,10.10
2022-09-06T23:13:47.072Z,12.20
2022-09-06T23:16:19.040Z,16.35
2022-09-06T23:18:46.954Z,10.80
2022-09-06T23:21:18.301Z,15.95
2022-09-06T23:23:46.795Z,11.93
2022-09-06T23:26:17.065Z,16.40
2022-09-06T23:28:44.173Z,13.73
2022-09-06T23:31:14.435Z,13.98
2022-09-06T23:33:42.011Z,14.80
2022-09-06T23:36:11.917Z,16.77
2022-09-06T23:38:40.810Z,19.55
2022-09-06T23:41:09.895Z,19.67
2022-09-06T23:43:37.958Z,17.92
2022-09-06T23:46:05.156Z,14.85
2022-09-06T23:48:32.549Z,18.02
2022-09-06T23:50:59.561Z,15.35
2022-09-06T23:53:26.803Z,13.77
2022-09-06T23:55:53.923Z,12.15
2022-09-06T23:58:20.807Z,10.68
